Time;durP1;ratioP1;P1;durP2;ratioP2;P2;SDS_P1;SDS_P2;PMS_P1;PMS_P2;Temp;Humidity;BMP_temperature;BMP_pressure;BME280_temperature;BME280_humidity;BME280_pressure;Samples;Min_cycle;Max_cycle;Signal;HPM_P1;HPM_P2
2022/10/12 00:00:27;;;;;;;16.00;11.23;;;11.70;99.90;;;;;;5062626;28;20492;-75
2022/10/12 00:02:54;;;;;;;20.43;15.20;;;11.80;99.90;;;;;;5063150;28;20537;-75
2022/10/12 00:05:21;;;;;;;11.67;10.47;;;11.80;99.90;;;;;;5062758;28;20862;-75
2022/10/12 00:07:48;;;;;;;13.33;11.10;;;11.80;99.90;;;;;;5061488;28;20591;-75
2022/10/12 00:10:16;;;;;;;12.77;11.13;;;11.70;99.90;;;;;;5063395;28;20489;-75
2022/10/12 00:12:44;;;;;;;12.50;11.30;;;11.70;99.90;;;;;;5063441;28;20478;-75
2022/10/12 00:15:11;;;;;;;15.33;11.97;;;11.60;99.90;;;;;;5064238;28;20571;-75
2022/10/12 00:17:39;;;;;;;17.60;11.40;;;11.60;99.90;;;;;;5059198;28;20542;-75
2022/10/12 00:20:07;;;;;;;18.60;12.03;;;11.70;99.90;;;;;;5064033;28;20468;-75
2022/10/12 00:22:34;;;;;;;13.43;12.03;;;11.70;99.90;;;;;;5060479;28;20455;-75
2022/10/12 00:25:01;;;;;;;13.37;11.53;;;11.70;99.90;;;;;;5060214;28;21009;-75
2022/10/12 00:27:28;;;;;;;13.80;12.33;;;11.70;99.90;;;;;;5061640;28;20537;-75
2022/10/12 00:29:56;;;;;;;16.97;11.73;;;11.70;99.90;;;;;;5061128;28;20793;-75
2022/10/12 00:32:23;;;;;;;12.40;11.20;;;11.70;99.90;;;;;;5063681;28;20488;-75
2022/10/12 00:34:50;;;;;;;17.00;11.80;;;11.60;99.90;;;;;;5063282;28;20548;-74
2022/10/12 00:37:17;;;;;;;12.90;11.53;;;11.70;99.90;;;;;;5059733;28;20945;-75
2022/10/12 00:39:44;;;;;;;13.50;10.97;;;11.60;99.90;;;;;;5064730;28;20455;-75
2022/10/12 00:42:12;;;;;;;12.37;11.03;;;11.60;99.90;;;;;;5063279;28;20492;-75
2022/10/12 00:44:42;;;;;;;13.40;12.00;;;11.60;99.90;;;;;;5063003;28;20574;-75
2022/10/12 00:47:26;;;;;;;11.73;10.70;;;11.60;99.90;;;;;;5063944;28;20840;-75
2022/10/12 00:50:01;;;;;;;13.53;11.83;;;11.60;99.90;;;;;;5058691;28;20556;-75
2022/10/12 00:52:35;;;;;;;13.33;11.60;;;11.60;99.90;;;;;;5064269;28;20994;-75
2022/10/12 00:55:03;;;;;;;13.47;12.17;;;11.60;99.90;;;;;;5056476;28;20483;-75
2022/10/12 00:57:30;;;;;;;13.97;11.30;;;11.60;99.90;;;;;;5060833;28;20542;-75
2022/10/12 01:00:02;;;;;;;12.93;11.60;;;11.50;99.90;;;;;;5058016;28;20522;-75
2022/10/12 01:02:32;;;;;;;13.73;10.63;;;11.50;99.90;;;;;;5060526;28;20572;-75
2022/10/12 01:05:00;;;;;;;13.13;11.80;;;11.50;99.90;;;;;;5060607;28;20485;-75
2022/10/12 01:07:27;;;;;;;11.50;9.80;;;11.40;99.90;;;;;;5061879;28;20465;-75
2022/10/12 01:09:54;;;;;;;15.70;11.90;;;11.40;99.90;;;;;;5059269;28;20585;-75
2022/10/12 01:12:22;;;;;;;13.60;11.20;;;11.30;99.90;;;;;;5059675;28;20493;-75
2022/10/12 01:14:49;;;;;;;15.60;11.27;;;11.40;99.90;;;;;;5062513;28;20484;-75
2022/10/12 01:17:29;;;;;;;16.40;11.90;;;11.40;99.90;;;;;;5061256;28;20522;-75
2022/10/12 01:20:34;;;;;;;14.13;12.63;;;11.30;99.90;;;;;;5060447;28;20459;-75
2022/10/12 01:23:32;;;;;;;12.27;10.97;;;11.30;99.90;;;;;;5053203;28;20559;-75
2022/10/12 01:26:18;;;;;;;14.10;11.93;;;11.30;99.90;;;;;;5059917;28;20495;-75
2022/10/12 01:28:55;;;;;;;13.50;12.20;;;11.30;99.90;;;;;;5060795;28;20487;-75
2022/10/12 01:31:30;;;;;;;13.07;11.27;;;11.20;99.90;;;;;;5058984;28;20545;-75
2022/10/12 01:34:00;;;;;;;19.50;13.47;;;11.20;99.90;;;;;;5059225;28;20588;-75
2022/10/12 01:36:33;;;;;;;14.77;12.23;;;11.20;99.90;;;;;;5061516;28;20532;-75
2022/10/12 01:39:09;;;;;;;15.27;12.37;;;11.30;99.90;;;;;;5057911;28;20877;-75
2022/10/12 01:41:43;;;;;;;14.43;12.03;;;11.20;99.90;;;;;;5057755;28;20538;-75
2022/10/12 01:44:10;;;;;;;13.23;11.87;;;11.20;99.90;;;;;;5062319;28;21266;-75
2022/10/12 01:46:44;;;;;;;13.10;11.23;;;11.20;99.90;;;;;;5058995;28;20459;-75
2022/10/12 01:49:14;;;;;;;14.17;12.83;;;11.10;99.90;;;;;;5059033;28;20467;-75
2022/10/12 01:52:16;;;;;;;13.83;12.20;;;11.10;99.90;;;;;;5056507;28;20460;-75
2022/10/12 01:55:03;;;;;;;19.10;10.47;;;11.00;99.90;;;;;;5047772;28;20548;-75
2022/10/12 01:57:38;;;;;;;17.13;13.17;;;11.10;99.90;;;;;;5060546;28;20471;-75
2022/10/12 02:00:08;;;;;;;14.10;12.77;;;11.10;99.90;;;;;;5058389;28;20532;-75
2022/10/12 02:02:46;;;;;;;13.37;11.97;;;11.10;99.90;;;;;;5063521;28;20517;-75
2022/10/12 02:05:21;;;;;;;19.10;13.60;;;11.00;99.90;;;;;;5062225;28;20518;-75
2022/10/12 02:07:51;;;;;;;16.50;12.77;;;11.00;99.90;;;;;;5061850;28;20460;-75
2022/10/12 02:10:24;;;;;;;14.33;12.73;;;11.00;99.90;;;;;;5061483;28;20455;-75
2022/10/12 02:12:52;;;;;;;16.50;14.63;;;11.00;99.90;;;;;;5060927;28;20525;-75
2022/10/12 02:15:21;;;;;;;21.70;14.90;;;11.00;99.90;;;;;;5059613;28;20483;-75
2022/10/12 02:17:52;;;;;;;19.73;14.83;;;10.90;99.90;;;;;;5059560;28;20461;-75
2022/10/12 02:20:24;;;;;;;18.10;15.57;;;10.90;99.90;;;;;;5058529;28;20492;-75
2022/10/12 02:22:52;;;;;;;16.40;13.80;;;10.80;99.90;;;;;;5060790;28;20467;-75
2022/10/12 02:25:22;;;;;;;15.77;13.93;;;10.80;99.90;;;;;;5061368;28;21019;-75
2022/10/12 02:27:55;;;;;;;15.70;13.93;;;10.80;99.90;;;;;;5054327;28;20523;-75
2022/10/12 02:30:22;;;;;;;16.93;15.23;;;10.80;99.90;;;;;;5060027;28;20517;-75
2022/10/12 02:32:56;;;;;;;17.37;14.50;;;10.80;99.90;;;;;;5056277;28;20487;-75
2022/10/12 02:35:26;;;;;;;17.10;15.30;;;10.80;99.90;;;;;;5058882;28;20541;-75
2022/10/12 02:37:58;;;;;;;18.03;14.20;;;10.80;99.90;;;;;;5054353;28;20468;-75
2022/10/12 02:40:32;;;;;;;18.90;15.00;;;10.80;99.90;;;;;;5059092;28;20459;-75
2022/10/12 02:43:05;;;;;;;18.30;14.93;;;10.80;99.90;;;;;;5060675;28;20525;-75
2022/10/12 02:45:34;;;;;;;17.67;14.57;;;10.80;99.90;;;;;;5062778;28;20455;-75
2022/10/12 02:48:04;;;;;;;16.03;13.87;;;10.90;99.90;;;;;;5057336;28;20553;-75
2022/10/12 02:50:32;;;;;;;16.13;14.20;;;10.80;99.90;;;;;;5062994;28;20459;-75
2022/10/12 02:53:00;;;;;;;16.30;14.43;;;10.80;99.90;;;;;;5060434;28;20946;-75
2022/10/12 02:55:27;;;;;;;15.83;13.97;;;10.80;99.90;;;;;;5063572;28;20456;-75
2022/10/12 02:57:53;;;;;;;19.37;17.20;;;10.80;99.90;;;;;;5057244;28;20488;-75
2022/10/12 03:00:20;;;;;;;16.63;15.03;;;10.80;99.90;;;;;;5060810;28;20472;-75
2022/10/12 03:02:47;;;;;;;17.23;14.90;;;10.80;99.90;;;;;;5060832;28;20464;-75
2022/10/12 03:05:16;;;;;;;17.67;14.20;;;10.80;99.90;;;;;;5057603;28;20511;-75
2022/10/12 03:07:43;;;;;;;22.10;14.53;;;10.80;99.90;;;;;;5062523;28;20849;-75
2022/10/12 03:10:10;;;;;;;20.63;15.33;;;10.70;99.90;;;;;;5055933;28;20517;-75
2022/10/12 03:12:37;;;;;;;17.23;15.27;;;10.70;99.90;;;;;;5059698;28;20543;-75
2022/10/12 03:15:05;;;;;;;19.30;16.27;;;10.60;99.90;;;;;;5057534;28;20492;-75
2022/10/12 03:17:32;;;;;;;16.27;14.57;;;10.70;99.90;;;;;;5063618;28;20536;-75
2022/10/12 03:19:58;;;;;;;18.97;15.20;;;10.70;99.90;;;;;;5061206;28;20846;-75
2022/10/12 03:22:27;;;;;;;23.97;17.83;;;10.70;99.90;;;;;;5062254;28;20469;-75
2022/10/12 03:24:54;;;;;;;19.50;14.83;;;10.70;99.90;;;;;;5064989;28;20480;-75
2022/10/12 03:27:21;;;;;;;16.77;15.07;;;10.70;99.90;;;;;;5059307;28;20572;-75
2022/10/12 03:29:48;;;;;;;18.60;15.60;;;10.70;99.90;;;;;;5061429;28;20541;-75
2022/10/12 03:32:15;;;;;;;18.27;16.37;;;10.60;99.90;;;;;;5065907;28;20464;-75
2022/10/12 03:34:42;;;;;;;19.00;14.90;;;10.70;99.90;;;;;;5064300;28;20459;-75
2022/10/12 03:37:09;;;;;;;20.53;14.60;;;10.60;99.90;;;;;;5060816;28;20495;-75
2022/10/12 03:39:37;;;;;;;16.70;12.90;;;10.60;99.90;;;;;;5063282;28;20467;-75
2022/10/12 03:42:05;;;;;;;17.40;14.80;;;10.60;99.90;;;;;;5060207;28;20530;-75
2022/10/12 03:44:31;;;;;;;19.60;17.50;;;10.50;99.90;;;;;;5063759;28;20496;-75
2022/10/12 03:46:58;;;;;;;17.23;14.90;;;10.50;99.90;;;;;;5061616;28;20463;-75
2022/10/12 03:49:25;;;;;;;20.97;17.53;;;10.50;99.90;;;;;;5062518;28;20856;-75
2022/10/12 03:51:52;;;;;;;18.83;16.47;;;10.50;99.90;;;;;;5061114;28;20463;-75
2022/10/12 03:54:19;;;;;;;18.23;16.30;;;10.60;99.90;;;;;;5064813;28;20469;-75
2022/10/12 03:56:48;;;;;;;21.93;17.00;;;10.60;99.90;;;;;;5062136;28;20460;-75
2022/10/12 03:59:15;;;;;;;25.90;18.17;;;10.60;99.90;;;;;;5059711;28;20491;-75
2022/10/12 04:01:42;;;;;;;20.27;17.70;;;10.60;99.90;;;;;;5060947;28;20487;-75
2022/10/12 04:04:10;;;;;;;20.27;16.50;;;10.60;99.90;;;;;;5063531;28;20483;-75
2022/10/12 04:06:37;;;;;;;23.13;18.03;;;10.60;99.90;;;;;;5061912;28;21188;-75
2022/10/12 04:09:04;;;;;;;23.30;17.77;;;10.70;99.90;;;;;;5058498;28;20459;-76
2022/10/12 04:11:31;;;;;;;21.97;18.13;;;10.80;99.90;;;;;;5062800;28;20452;-75
2022/10/12 04:13:59;;;;;;;19.23;16.80;;;10.80;99.90;;;;;;5060776;28;20845;-75
2022/10/12 04:16:26;;;;;;;22.67;17.70;;;10.80;99.90;;;;;;5064831;28;20812;-75
2022/10/12 04:18:53;;;;;;;22.97;17.60;;;10.90;99.90;;;;;;5060826;28;20549;-75
2022/10/12 04:21:22;;;;;;;19.97;16.00;;;10.90;99.90;;;;;;5064428;28;20464;-75
2022/10/12 04:23:49;;;;;;;23.70;16.73;;;10.80;99.90;;;;;;5063898;28;20467;-75
2022/10/12 04:26:16;;;;;;;17.27;15.57;;;10.90;99.90;;;;;;5061358;28;20969;-76
2022/10/12 04:28:43;;;;;;;24.37;17.63;;;10.80;99.90;;;;;;5062145;28;20580;-75
2022/10/12 04:31:11;;;;;;;19.30;16.77;;;10.90;99.90;;;;;;5057179;28;20857;-76
2022/10/12 04:33:38;;;;;;;20.80;16.63;;;10.80;99.90;;;;;;5062855;28;20552;-76
2022/10/12 04:36:06;;;;;;;24.37;16.70;;;10.80;99.90;;;;;;5059551;28;20471;-76
2022/10/12 04:38:33;;;;;;;23.47;16.63;;;10.80;99.90;;;;;;5061690;28;20460;-76
2022/10/12 04:41:00;;;;;;;17.93;15.90;;;10.80;99.90;;;;;;5057647;28;21102;-76
2022/10/12 04:43:27;;;;;;;18.40;16.03;;;10.90;99.90;;;;;;5063211;28;20509;-75
2022/10/12 04:45:55;;;;;;;21.30;15.97;;;10.80;99.90;;;;;;5061168;28;20491;-75
2022/10/12 04:48:24;;;;;;;20.27;15.60;;;10.90;99.90;;;;;;5064291;28;20463;-76
2022/10/12 04:50:52;;;;;;;20.93;18.17;;;10.90;99.90;;;;;;5062086;28;20495;-77
2022/10/12 04:53:19;;;;;;;24.13;18.40;;;10.80;99.90;;;;;;5061022;28;20552;-76
2022/10/12 04:55:45;;;;;;;24.97;18.37;;;10.80;99.90;;;;;;5062152;28;20506;-76
2022/10/12 04:58:13;;;;;;;24.37;17.63;;;10.80;99.90;;;;;;5060118;28;20939;-76
2022/10/12 05:00:40;;;;;;;20.40;17.10;;;10.80;99.90;;;;;;5064971;28;20505;-76
2022/10/12 05:03:06;;;;;;;26.57;17.60;;;10.80;99.90;;;;;;5058105;28;20507;-76
2022/10/12 05:05:35;;;;;;;22.90;16.30;;;10.80;99.90;;;;;;5060221;28;20837;-76
2022/10/12 05:08:02;;;;;;;22.90;17.30;;;10.80;99.90;;;;;;5062015;28;20459;-76
2022/10/12 05:10:29;;;;;;;19.93;17.07;;;10.80;99.90;;;;;;5065686;28;20503;-76
2022/10/12 05:12:56;;;;;;;19.80;16.20;;;10.80;99.90;;;;;;5061966;28;20487;-76
2022/10/12 05:15:23;;;;;;;19.40;16.40;;;10.80;99.90;;;;;;5058526;28;20459;-77
2022/10/12 05:17:50;;;;;;;17.47;15.47;;;10.80;99.90;;;;;;5063157;28;20468;-74
2022/10/12 05:20:18;;;;;;;22.67;16.23;;;10.90;99.90;;;;;;5051460;28;20464;-74
2022/10/12 05:22:46;;;;;;;20.57;17.13;;;10.80;99.90;;;;;;5063316;28;20468;-74
2022/10/12 05:25:13;;;;;;;20.60;15.03;;;10.80;99.90;;;;;;5060615;28;20550;-74
2022/10/12 05:27:40;;;;;;;27.00;14.47;;;10.80;99.90;;;;;;5057507;28;20604;-74
2022/10/12 05:30:08;;;;;;;17.73;15.50;;;10.80;99.90;;;;;;5061633;28;20463;-74
2022/10/12 05:32:35;;;;;;;21.67;16.03;;;10.80;99.90;;;;;;5062262;28;20522;-74
2022/10/12 05:35:02;;;;;;;18.20;14.77;;;10.80;99.90;;;;;;5056781;28;20529;-74
2022/10/12 05:37:29;;;;;;;20.73;14.70;;;10.80;99.90;;;;;;5061398;28;20533;-74
2022/10/12 05:39:57;;;;;;;19.20;15.27;;;10.90;99.90;;;;;;5062563;28;20948;-74
2022/10/12 05:42:24;;;;;;;22.63;15.17;;;10.90;99.90;;;;;;5059810;28;20531;-74
2022/10/12 05:44:52;;;;;;;17.50;14.90;;;10.80;99.90;;;;;;5061175;28;20545;-74
2022/10/12 05:47:19;;;;;;;16.87;14.20;;;10.80;99.90;;;;;;5054606;28;20521;-74
2022/10/12 05:49:46;;;;;;;23.20;17.13;;;10.80;99.90;;;;;;5061409;28;20916;-74
2022/10/12 05:52:12;;;;;;;20.63;14.83;;;10.80;99.90;;;;;;5051729;28;20473;-77
2022/10/12 05:54:39;;;;;;;14.70;13.20;;;10.90;99.90;;;;;;5060199;28;20517;-77
2022/10/12 05:57:08;;;;;;;18.27;15.33;;;10.80;99.90;;;;;;5055847;28;20455;-77
2022/10/12 05:59:35;;;;;;;16.27;13.90;;;10.80;99.90;;;;;;5064261;28;20509;-77
2022/10/12 06:02:02;;;;;;;16.93;13.23;;;10.80;99.90;;;;;;5051674;28;20524;-77
2022/10/12 06:04:29;;;;;;;20.37;14.83;;;10.80;99.90;;;;;;5055784;28;20492;-77
2022/10/12 06:06:55;;;;;;;19.50;14.37;;;10.80;99.90;;;;;;5057152;28;20859;-77
2022/10/12 06:09:22;;;;;;;18.60;14.97;;;10.90;99.90;;;;;;5061376;28;20549;-77
2022/10/12 06:11:49;;;;;;;19.20;15.10;;;10.90;99.90;;;;;;5058514;28;20526;-77
2022/10/12 06:14:18;;;;;;;17.10;13.30;;;10.90;99.90;;;;;;5061985;28;20974;-77
2022/10/12 06:16:45;;;;;;;14.50;12.77;;;10.90;99.90;;;;;;5051288;28;21001;-77
2022/10/12 06:19:12;;;;;;;20.63;12.67;;;10.90;99.90;;;;;;5052668;28;20521;-77
2022/10/12 06:21:39;;;;;;;19.53;15.00;;;10.90;99.90;;;;;;5052526;28;20600;-77
2022/10/12 06:24:06;;;;;;;22.20;12.67;;;11.00;99.90;;;;;;5051634;28;20498;-76
2022/10/12 06:26:33;;;;;;;21.73;15.53;;;11.00;99.90;;;;;;5062607;28;20564;-77
2022/10/12 06:29:00;;;;;;;17.40;12.60;;;11.10;99.90;;;;;;5061510;28;20534;-78
2022/10/12 06:31:29;;;;;;;18.27;13.07;;;11.10;99.90;;;;;;5056432;28;20453;-77
2022/10/12 06:33:56;;;;;;;16.47;13.30;;;11.20;99.90;;;;;;5055612;28;20471;-79
2022/10/12 06:36:23;;;;;;;19.67;12.67;;;11.20;99.90;;;;;;5054092;28;20452;-78
2022/10/12 06:38:50;;;;;;;20.20;13.70;;;11.30;99.90;;;;;;5053243;28;21806;-78
2022/10/12 06:41:17;;;;;;;15.27;12.60;;;11.30;99.90;;;;;;5055914;28;20517;-78
2022/10/12 06:43:43;;;;;;;18.10;13.00;;;11.30;99.90;;;;;;5053981;28;20463;-78
2022/10/12 06:46:10;;;;;;;20.87;14.13;;;11.40;99.90;;;;;;5050916;28;20584;-79
2022/10/12 06:48:39;;;;;;;17.57;13.33;;;11.50;99.90;;;;;;5064055;28;20455;-78
2022/10/12 06:51:06;;;;;;;14.10;12.60;;;11.60;99.90;;;;;;5063050;28;20776;-78
2022/10/12 06:53:33;;;;;;;14.20;12.83;;;11.60;99.90;;;;;;5058374;28;21168;-78
2022/10/12 06:56:05;;;;;;;18.23;13.00;;;11.70;99.90;;;;;;5053754;28;20494;-79
2022/10/12 06:58:32;;;;;;;16.43;12.67;;;11.80;99.90;;;;;;5055439;28;21034;-79
2022/10/12 07:01:01;;;;;;;15.53;13.90;;;11.70;99.90;;;;;;5053165;28;20836;-79
2022/10/12 07:03:28;;;;;;;13.47;10.97;;;11.70;99.90;;;;;;5052029;28;20485;-79
2022/10/12 07:06:06;;;;;;;12.87;11.30;;;11.50;99.90;;;;;;5052830;28;20569;-77
2022/10/12 07:08:33;;;;;;;13.20;10.27;;;11.50;99.90;;;;;;5051027;28;20473;-76
2022/10/12 07:11:01;;;;;;;16.30;11.03;;;11.50;99.90;;;;;;5050645;28;20755;-77
2022/10/12 07:13:28;;;;;;;16.03;10.60;;;11.40;99.90;;;;;;5056975;28;20485;-76
2022/10/12 07:15:56;;;;;;;11.83;10.27;;;11.50;99.90;;;;;;5060181;28;20799;-77
2022/10/12 07:18:23;;;;;;;13.57;9.73;;;11.40;99.90;;;;;;5059978;28;20842;-77
2022/10/12 07:20:50;;;;;;;10.83;9.07;;;11.40;99.90;;;;;;5058657;28;20575;-79
2022/10/12 07:23:18;;;;;;;9.33;8.40;;;11.30;99.90;;;;;;5061168;28;20487;-77
2022/10/12 07:25:49;;;;;;;11.73;9.13;;;11.50;99.90;;;;;;5062147;28;20499;-77
2022/10/12 07:28:16;;;;;;;11.90;9.83;;;11.40;99.90;;;;;;5054991;28;20488;-77
2022/10/12 07:30:43;;;;;;;8.93;8.13;;;11.40;99.90;;;;;;5059121;28;20544;-76
2022/10/12 07:33:10;;;;;;;12.00;8.90;;;11.40;99.90;;;;;;5055371;28;20496;-77
2022/10/12 07:35:37;;;;;;;8.13;7.20;;;11.50;99.90;;;;;;5058534;28;20459;-76
2022/10/12 07:38:04;;;;;;;13.77;8.47;;;11.50;99.90;;;;;;5056953;28;20495;-77
2022/10/12 07:40:33;;;;;;;9.33;7.60;;;11.60;99.90;;;;;;5059308;28;20457;-77
2022/10/12 07:43:00;;;;;;;13.37;9.23;;;11.60;99.90;;;;;;5050014;28;20483;-77
2022/10/12 07:45:28;;;;;;;9.70;8.13;;;11.80;99.90;;;;;;5059183;28;20941;-77
2022/10/12 07:47:55;;;;;;;11.50;8.27;;;11.90;99.90;;;;;;5058732;28;21105;-77
2022/10/12 07:50:24;;;;;;;12.50;8.00;;;12.00;99.90;;;;;;5052134;28;20598;-78
2022/10/12 07:52:51;;;;;;;8.80;7.90;;;12.00;99.90;;;;;;5053520;28;20472;-78
2022/10/12 07:55:18;;;;;;;9.00;6.60;;;12.10;99.90;;;;;;5047538;28;21035;-78
2022/10/12 07:57:46;;;;;;;11.40;6.83;;;12.10;99.90;;;;;;5052719;28;20527;-79
2022/10/12 08:00:13;;;;;;;9.20;7.97;;;12.20;99.90;;;;;;5050861;28;20496;-79
2022/10/12 08:02:40;;;;;;;13.97;9.43;;;12.20;99.90;;;;;;5055988;28;20575;-78
2022/10/12 08:05:08;;;;;;;7.93;6.73;;;12.30;99.90;;;;;;5064308;28;20823;-79
2022/10/12 08:07:35;;;;;;;12.17;7.90;;;12.20;99.90;;;;;;5059488;28;20503;-79
2022/10/12 08:10:02;;;;;;;11.00;7.37;;;12.30;99.90;;;;;;5060610;28;20454;-78
2022/10/12 08:12:29;;;;;;;7.40;6.17;;;12.40;99.90;;;;;;5057190;28;20460;-79
2022/10/12 08:14:58;;;;;;;7.30;6.57;;;12.50;99.90;;;;;;5051598;28;20493;-78
2022/10/12 08:17:25;;;;;;;7.73;6.27;;;12.50;99.90;;;;;;5053928;28;20476;-78
2022/10/12 08:19:52;;;;;;;9.00;6.73;;;12.50;99.90;;;;;;5049292;28;20476;-78
2022/10/12 08:22:19;;;;;;;9.00;5.93;;;12.60;99.90;;;;;;5054660;28;20493;-78
2022/10/12 08:24:46;;;;;;;8.23;7.50;;;12.70;99.90;;;;;;5058399;28;20468;-80
2022/10/12 08:27:13;;;;;;;7.23;5.60;;;12.90;99.90;;;;;;5058324;28;20522;-79
2022/10/12 08:29:40;;;;;;;6.80;5.93;;;13.00;99.90;;;;;;5053216;28;20615;-79
2022/10/12 08:32:08;;;;;;;8.03;6.57;;;13.00;99.90;;;;;;5058895;28;20970;-80
2022/10/12 08:34:35;;;;;;;6.23;5.60;;;13.20;99.90;;;;;;5063691;28;20817;-79
2022/10/12 08:37:02;;;;;;;13.93;5.60;;;13.20;99.90;;;;;;5060471;28;20555;-79
2022/10/12 08:39:29;;;;;;;9.43;5.30;;;13.10;99.90;;;;;;5059581;28;20538;-79
2022/10/12 08:42:10;;;;;;;9.73;6.57;;;13.20;99.90;;;;;;5054632;28;20944;-79
2022/10/12 08:44:51;;;;;;;11.27;5.90;;;13.00;99.90;;;;;;5063328;28;20906;-79
2022/10/12 08:47:24;;;;;;;12.37;7.17;;;12.80;99.90;;;;;;5059402;28;20980;-76
2022/10/12 08:49:53;;;;;;;10.00;5.83;;;12.70;99.90;;;;;;5067056;28;20453;-76
2022/10/12 08:52:28;;;;;;;7.50;6.43;;;12.80;99.90;;;;;;5059313;28;21128;-77
2022/10/12 08:55:01;;;;;;;9.60;6.77;;;13.00;99.90;;;;;;5067360;28;20507;-79
2022/10/12 08:57:28;;;;;;;6.40;5.40;;;13.20;99.90;;;;;;5061274;28;20485;-79
2022/10/12 08:59:55;;;;;;;9.17;7.63;;;13.30;99.90;;;;;;5066417;28;20441;-79
2022/10/12 09:02:44;;;;;;;8.97;5.50;;;13.60;99.90;;;;;;5053270;28;20445;-79
2022/10/12 09:05:17;;;;;;;6.73;5.80;;;13.90;99.90;;;;;;5072107;28;20994;-79
2022/10/12 09:07:49;;;;;;;7.57;6.87;;;14.00;99.90;;;;;;5063930;28;20531;-79
2022/10/12 09:10:33;;;;;;;9.23;7.53;;;14.30;99.90;;;;;;5062024;28;21169;-78
2022/10/12 09:13:07;;;;;;;7.40;6.43;;;14.40;99.90;;;;;;5066432;28;20494;-78
2022/10/12 09:15:38;;;;;;;6.67;6.00;;;14.50;99.90;;;;;;5061888;28;20508;-78
2022/10/12 09:18:16;;;;;;;9.07;6.53;;;14.40;99.90;;;;;;5057375;28;20473;-78
2022/10/12 09:20:47;;;;;;;8.83;7.13;;;14.20;99.90;;;;;;5055741;28;20571;-78
2022/10/12 09:23:23;;;;;;;7.83;6.37;;;14.10;99.90;;;;;;5056350;28;20465;-77
2022/10/12 09:25:50;;;;;;;7.30;6.40;;;14.10;99.90;;;;;;5056369;28;20552;-78
2022/10/12 09:28:24;;;;;;;8.70;5.83;;;13.90;99.90;;;;;;5059399;28;20534;-79
2022/10/12 09:31:06;;;;;;;9.33;6.33;;;14.00;99.90;;;;;;5056852;28;20498;-77
2022/10/12 09:33:39;;;;;;;11.13;6.60;;;13.80;99.90;;;;;;5059490;28;20547;-77
2022/10/12 09:36:09;;;;;;;7.23;6.10;;;13.90;99.90;;;;;;5057768;28;21012;-78
2022/10/12 09:38:37;;;;;;;8.57;6.73;;;14.00;99.90;;;;;;5062164;28;20551;-78
2022/10/12 09:41:04;;;;;;;9.97;6.73;;;14.00;99.90;;;;;;5053049;28;20468;-79
2022/10/12 09:43:31;;;;;;;6.90;6.10;;;14.20;99.90;;;;;;5057339;28;20462;-78
2022/10/12 09:46:05;;;;;;;9.53;7.30;;;14.10;99.90;;;;;;5054859;28;20577;-78
2022/10/12 09:48:33;;;;;;;7.10;5.23;;;14.20;99.90;;;;;;5059733;28;20928;-79
2022/10/12 09:51:03;;;;;;;5.97;5.40;;;14.20;99.90;;;;;;5064254;28;21041;-78
2022/10/12 09:53:33;;;;;;;6.83;5.67;;;14.30;99.90;;;;;;5054526;28;20532;-79
2022/10/12 09:56:05;;;;;;;7.60;6.00;;;14.60;99.90;;;;;;5065303;28;20621;-79
2022/10/12 09:58:41;;;;;;;8.23;6.40;;;14.70;99.90;;;;;;5056120;28;20471;-78
2022/10/12 10:01:21;;;;;;;6.37;5.40;;;14.70;99.90;;;;;;5049580;28;20515;-78
2022/10/12 10:04:05;;;;;;;8.03;6.10;;;15.00;99.90;;;;;;5050245;28;20563;-78
2022/10/12 10:06:32;;;;;;;6.43;4.60;;;15.00;99.90;;;;;;5054435;28;20521;-79
2022/10/12 10:08:59;;;;;;;6.23;5.67;;;14.90;99.90;;;;;;5056700;28;20490;-78
2022/10/12 10:11:29;;;;;;;11.13;6.47;;;15.00;99.90;;;;;;5054741;28;21087;-79
2022/10/12 10:13:57;;;;;;;7.83;6.10;;;14.90;99.90;;;;;;5059508;28;20965;-79
2022/10/12 10:16:26;;;;;;;8.20;6.20;;;14.90;99.90;;;;;;5052884;28;20536;-79
2022/10/12 10:18:59;;;;;;;7.93;7.23;;;14.90;99.90;;;;;;5063764;28;20456;-79
2022/10/12 10:21:28;;;;;;;6.03;4.90;;;15.10;99.90;;;;;;5050530;28;20913;-79
2022/10/12 10:23:57;;;;;;;8.60;6.87;;;14.90;99.90;;;;;;5056876;28;20472;-78
2022/10/12 10:26:26;;;;;;;9.30;6.73;;;15.20;99.90;;;;;;5049263;28;20517;-79
2022/10/12 10:28:57;;;;;;;10.03;6.00;;;15.50;99.90;;;;;;5057176;28;20554;-79
2022/10/12 10:31:28;;;;;;;9.03;5.90;;;15.80;99.90;;;;;;5057991;28;20469;-79
2022/10/12 10:34:22;;;;;;;7.23;6.37;;;15.80;99.90;;;;;;5057210;28;20950;-77
2022/10/12 10:36:51;;;;;;;9.80;7.10;;;15.90;99.90;;;;;;5044093;28;21027;-77
2022/10/12 10:39:22;;;;;;;9.40;6.60;;;16.00;99.90;;;;;;5060435;28;20468;-77
2022/10/12 10:41:50;;;;;;;6.37;5.77;;;16.10;99.90;;;;;;5058728;28;20506;-77
2022/10/12 10:44:38;;;;;;;7.10;6.23;;;15.70;99.90;;;;;;5051603;28;20487;-75
2022/10/12 10:47:12;;;;;;;9.67;5.87;;;15.90;99.90;;;;;;5051925;28;20503;-77
2022/10/12 10:49:41;;;;;;;7.97;5.87;;;15.60;99.90;;;;;;5059498;28;20466;-77
2022/10/12 10:52:20;;;;;;;8.53;5.70;;;15.70;99.90;;;;;;5062259;28;20510;-77
2022/10/12 10:54:48;;;;;;;8.73;6.50;;;16.00;99.90;;;;;;5056827;28;20462;-75
2022/10/12 10:57:19;;;;;;;8.70;6.50;;;15.80;99.90;;;;;;5059581;28;20494;-77
2022/10/12 10:59:51;;;;;;;8.00;6.27;;;15.90;99.90;;;;;;5054656;28;20772;-76
2022/10/12 11:02:31;;;;;;;5.50;5.00;;;15.90;99.90;;;;;;5053758;28;20447;-76
2022/10/12 11:05:08;;;;;;;7.20;6.20;;;15.60;99.90;;;;;;5060254;28;20682;-75
2022/10/12 11:07:40;;;;;;;8.20;7.20;;;15.60;99.90;;;;;;5051708;28;20756;-76
2022/10/12 11:10:20;;;;;;;7.70;6.83;;;15.70;99.90;;;;;;5060028;28;20804;-75
2022/10/12 11:12:52;;;;;;;7.87;7.17;;;15.80;99.90;;;;;;5060327;28;20499;-74
2022/10/12 11:15:25;;;;;;;6.33;5.70;;;16.00;99.90;;;;;;5052490;28;20921;-75
2022/10/12 11:17:57;;;;;;;9.43;6.83;;;16.20;99.90;;;;;;5061290;28;20894;-75
2022/10/12 11:20:45;;;;;;;8.83;7.93;;;16.20;99.90;;;;;;5056789;28;20459;-76
2022/10/12 11:23:22;;;;;;;8.70;7.90;;;16.60;99.90;;;;;;5053960;28;20463;-77
2022/10/12 11:26:03;;;;;;;13.50;8.87;;;16.70;99.90;;;;;;5055916;28;20460;-77
2022/10/12 11:28:32;;;;;;;7.63;6.93;;;16.60;99.90;;;;;;5053434;28;20479;-77
2022/10/12 11:31:00;;;;;;;9.00;7.00;;;16.80;99.90;;;;;;5058557;28;21048;-77
2022/10/12 11:33:33;;;;;;;8.23;6.30;;;16.80;99.90;;;;;;5058212;28;20471;-76
2022/10/12 11:36:03;;;;;;;7.67;6.80;;;17.00;99.90;;;;;;5058079;28;20481;-77
2022/10/12 11:38:33;;;;;;;13.90;8.10;;;16.80;99.90;;;;;;5035514;28;20477;-77
2022/10/12 11:41:07;;;;;;;8.53;7.07;;;16.90;99.90;;;;;;5054393;28;20486;-77
2022/10/12 11:43:38;;;;;;;8.80;7.20;;;16.70;99.90;;;;;;5061171;28;20490;-77
2022/10/12 11:46:08;;;;;;;9.20;8.03;;;16.70;99.90;;;;;;5054902;28;20495;-77
2022/10/12 11:48:41;;;;;;;9.07;7.60;;;16.70;99.90;;;;;;5061317;28;20548;-76
2022/10/12 11:51:12;;;;;;;10.57;8.60;;;16.60;99.90;;;;;;5057080;28;20491;-76
2022/10/12 11:53:47;;;;;;;12.20;8.17;;;16.70;99.90;;;;;;5058966;28;20461;-77
2022/10/12 11:56:20;;;;;;;8.13;7.43;;;16.80;99.90;;;;;;5063675;28;20454;-77
2022/10/12 11:58:51;;;;;;;10.13;7.80;;;16.80;99.90;;;;;;5058512;28;20523;-77
2022/10/12 12:01:54;;;;;;;9.43;8.33;;;16.80;99.90;;;;;;5058981;28;20534;-77
2022/10/12 12:04:26;;;;;;;10.20;8.30;;;16.70;99.90;;;;;;5052663;28;20945;-77
2022/10/12 12:06:58;;;;;;;9.13;7.13;;;16.70;99.90;;;;;;5065197;28;20518;-77
2022/10/12 12:09:42;;;;;;;8.87;8.17;;;16.90;99.90;;;;;;5064945;28;20924;-77
2022/10/12 12:12:15;;;;;;;7.83;6.97;;;16.60;99.90;;;;;;5058714;28;20462;-76
2022/10/12 12:14:59;;;;;;;6.93;6.20;;;16.60;99.90;;;;;;5066854;28;20451;-76
2022/10/12 12:17:28;;;;;;;7.57;6.87;;;16.60;99.90;;;;;;5058798;28;20548;-76
2022/10/12 12:19:56;;;;;;;8.70;7.80;;;16.30;99.90;;;;;;5065557;28;20475;-76
2022/10/12 12:22:34;;;;;;;10.53;9.03;;;16.40;99.90;;;;;;5055198;28;20467;-77
2022/10/12 12:25:33;;;;;;;7.90;7.13;;;16.50;99.90;;;;;;5062379;28;20533;-76
2022/10/12 12:28:17;;;;;;;10.00;8.07;;;16.50;99.90;;;;;;5053847;28;21025;-77
2022/10/12 12:30:56;;;;;;;11.57;7.77;;;16.40;99.90;;;;;;5057174;28;20467;-77
2022/10/12 12:33:29;;;;;;;14.50;8.87;;;16.10;99.90;;;;;;5062854;28;20468;-76
2022/10/12 12:36:00;;;;;;;13.43;9.27;;;16.00;99.90;;;;;;5067013;28;20466;-77
2022/10/12 12:38:31;;;;;;;10.30;8.37;;;15.70;99.90;;;;;;5062588;28;20476;-76
2022/10/12 12:41:06;;;;;;;15.37;8.20;;;15.60;99.90;;;;;;5069441;28;20499;-76
2022/10/12 12:43:56;;;;;;;10.40;7.47;;;15.50;99.90;;;;;;5063556;28;20450;-77
2022/10/12 12:46:25;;;;;;;7.80;7.17;;;15.50;99.90;;;;;;5057464;28;20475;-77
2022/10/12 12:49:04;;;;;;;9.07;8.17;;;15.50;99.90;;;;;;5066149;28;20494;-77